This is the latest recevied weather packets stored in our database for station/object KG5WBN. If no packets are shown the sender has not sent any weather packets the latest 10 day(s).
| Time | Temp. | Humidity | Pressure | Rain* | Wind** | Luminosity | Snow |
|---|---|---|---|---|---|---|---|
| 1787847421 | 25.56° C | 99% | 1014.6 hPa | 0 mm | - | 189 W/m² | - |
| 1787847116 | 25.56° C | 99% | 1014.6 hPa | 0 mm | - | 202 W/m² | - |
| 1787846812 | 25.56° C | 99% | 1014.6 hPa | 0 mm | - | 246 W/m² | - |
| 1787846507 | 25° C | 99% | 1014.9 hPa | 0 mm | - | 156 W/m² | - |
| 1787846203 | 25° C | 99% | 1014.9 hPa | 0 mm | - | 154 W/m² | - |
| 1787845899 | 25° C | 99% | 1014.6 hPa | 0 mm | - | 157 W/m² | - |
| 1787845599 | 25° C | 99% | 1014.9 hPa | 0 mm | - | 128 W/m² | - |
| 1787845293 | 25° C | 99% | 1015.2 hPa | 0 mm | - | 125 W/m² | - |
| 1787844990 | 25° C | 99% | 1014.9 hPa | 0 mm | - | 114 W/m² | - |
| 1787844685 | 25° C | 99% | 1015.2 hPa | 0 mm | - | 97 W/m² | - |
| 1787844384 | 25° C | 99% | 1015.2 hPa | 0 mm | - | 93 W/m² | - |
| 1787844084 | 25° C | 99% | 1015.2 hPa | 0 mm | - | 85 W/m² | - |
| 1787843779 | 25° C | 99% | 1015.2 hPa | 0 mm | - | 85 W/m² | - |
| 1787843474 | 24.44° C | 99% | 1015.6 hPa | 0 mm | - | 84 W/m² | - |
| 1787843172 | 24.44° C | 99% | 1015.2 hPa | 0 mm | - | 78 W/m² | - |
| 1787842872 | 24.44° C | 99% | 1015.6 hPa | 1.78 mm | - | 67 W/m² | - |
| 1787842572 | 24.44° C | 99% | 1015.6 hPa | 1.78 mm | - | 60 W/m² | - |
| 1787842266 | 24.44° C | 99% | 1015.2 hPa | 0 mm | - | 50 W/m² | - |
| 1787841966 | 24.44° C | 99% | 1015.6 hPa | 0 mm | - | 45 W/m² | - |
| 1787841662 | 24.44° C | 99% | 1015.6 hPa | 1.27 mm | - | 40 W/m² | - |
| 1787841361 | 24.44° C | 99% | 1015.9 hPa | 1.27 mm | - | 33 W/m² | - |
| 1787841056 | 24.44° C | 99% | 1015.6 hPa | 0 mm | - | 31 W/m² | - |
| 1787840751 | 24.44° C | 99% | 1015.6 hPa | 0 mm | - | 27 W/m² | - |
| 1787840446 | 24.44° C | 99% | 1015.9 hPa | 1.78 mm | - | 23 W/m² | - |
| 1787840142 | 24.44° C | 99% | 1015.9 hPa | 1.27 mm | - | 17 W/m² | - |
* Rain latest hour (hover to see other rain measurements)
** Current wind speed in m/s (hover to see current wind gust speed)